Time;durP1;ratioP1;P1;durP2;ratioP2;P2;SDS_P1;SDS_P2;PMS_P1;PMS_P2;Temp;Humidity;BMP_temperature;BMP_pressure;BME280_temperature;BME280_humidity;BME280_pressure;Samples;Min_cycle;Max_cycle;Signal;HPM_P1;HPM_P2
2021/12/15 00:01:42;;;;;;;;;;;20.00;57.00;;;;;;4995886;28;1304;-70
2021/12/15 00:04:08;;;;;;;;;;;20.00;57.10;;;;;;5013457;28;1303;-70
2021/12/15 00:06:33;;;;;;;;;;;20.00;57.60;;;;;;5013174;28;1064;-71
2021/12/15 00:08:59;;;;;;;;;;;19.90;57.00;;;;;;5008912;28;1342;-70
2021/12/15 00:11:32;;;;;;;;;;;19.90;57.10;;;;;;4995590;28;1285;-71
2021/12/15 00:13:58;;;;;;;;;;;19.90;57.10;;;;;;4996958;28;1493;-71
2021/12/15 00:16:23;;;;;;;;;;;19.90;57.10;;;;;;5001927;28;1969;-71
2021/12/15 00:18:48;;;;;;;;;;;19.90;57.10;;;;;;4990387;28;1320;-71
2021/12/15 00:21:15;;;;;;;;;;;19.90;57.10;;;;;;5004633;28;1289;-71
2021/12/15 00:23:40;;;;;;;;;;;19.90;57.20;;;;;;4995633;28;1404;-72
2021/12/15 00:26:06;;;;;;;;;;;19.90;57.20;;;;;;5001851;28;1073;-71
2021/12/15 00:28:31;;;;;;;;;;;19.90;57.20;;;;;;4993541;28;1380;-72
2021/12/15 00:30:57;;;;;;;;;;;19.90;57.20;;;;;;4993567;28;1025;-73
2021/12/15 00:33:22;;;;;;;;;;;19.90;57.30;;;;;;4993317;28;1354;-72
2021/12/15 00:35:48;;;;;;;;;;;19.90;57.30;;;;;;4992926;28;1420;-72
2021/12/15 00:38:14;;;;;;;;;;;19.90;57.30;;;;;;4993301;28;1906;-72
2021/12/15 00:40:39;;;;;;;;;;;19.80;57.30;;;;;;4993425;28;1302;-72
2021/12/15 00:43:05;;;;;;;;;;;19.80;57.30;;;;;;4989885;28;1379;-71
2021/12/15 00:45:30;;;;;;;;;;;19.80;57.30;;;;;;5003250;28;1696;-71
2021/12/15 00:47:56;;;;;;;;;;;19.80;57.30;;;;;;4995053;28;1241;-71
2021/12/15 00:50:22;;;;;;;;;;;19.80;57.30;;;;;;4993667;28;1371;-72
2021/12/15 00:52:48;;;;;;;;;;;19.80;57.30;;;;;;4989376;28;1281;-72
2021/12/15 00:55:15;;;;;;;;;;;19.80;57.40;;;;;;5002465;28;1329;-71
2021/12/15 00:57:40;;;;;;;;;;;19.80;57.40;;;;;;4995068;28;1975;-71
2021/12/15 01:00:09;;;;;;;;;;;19.80;57.40;;;;;;5002996;28;1068;-71
2021/12/15 01:02:36;;;;;;;;;;;19.80;57.40;;;;;;5010669;28;1352;-71
2021/12/15 01:05:01;;;;;;;;;;;19.80;57.40;;;;;;5012832;28;1065;-71
2021/12/15 01:07:27;;;;;;;;;;;19.80;57.40;;;;;;5012514;28;1307;-72
2021/12/15 01:09:54;;;;;;;;;;;19.80;57.50;;;;;;5008561;28;1135;-72
2021/12/15 01:20:22;;;;;;;;;;;19.70;57.40;;;;;;4993212;28;1337;-72
2021/12/15 01:22:49;;;;;;;;;;;19.80;57.50;;;;;;4983464;28;1341;-73
2021/12/15 01:25:19;;;;;;;;;;;19.80;58.20;;;;;;5006096;28;1303;-72
2021/12/15 01:27:45;;;;;;;;;;;19.80;57.60;;;;;;4984095;28;1061;-72
2021/12/15 01:30:11;;;;;;;;;;;19.80;57.60;;;;;;5011474;28;1337;-71
2021/12/15 01:32:37;;;;;;;;;;;19.70;57.60;;;;;;4995042;28;1439;-71
2021/12/15 01:35:03;;;;;;;;;;;19.70;57.60;;;;;;4993913;28;1377;-71
2021/12/15 01:37:28;;;;;;;;;;;19.70;57.60;;;;;;4983872;28;1961;-71
2021/12/15 01:39:55;;;;;;;;;;;19.70;57.60;;;;;;5011437;28;1354;-71
2021/12/15 01:42:28;;;;;;;;;;;19.70;57.60;;;;;;5012728;28;1299;-71
2021/12/15 01:47:37;;;;;;;;;;;19.70;57.60;;;;;;5002368;28;1123;-72
2021/12/15 01:50:03;;;;;;;;;;;19.70;57.70;;;;;;5015913;28;1285;-71
2021/12/15 01:52:33;;;;;;;;;;;19.70;57.70;;;;;;5010558;28;1282;-70
2021/12/15 01:54:59;;;;;;;;;;;19.70;57.70;;;;;;5014855;28;1322;-71
2021/12/15 01:57:26;;;;;;;;;;;19.70;57.70;;;;;;5015423;28;1923;-71
2021/12/15 01:59:52;;;;;;;;;;;19.70;57.70;;;;;;5006036;28;1084;-71
2021/12/15 02:02:18;;;;;;;;;;;19.70;57.70;;;;;;5009941;28;1302;-71
2021/12/15 02:04:43;;;;;;;;;;;19.70;57.70;;;;;;5000288;28;1085;-71
2021/12/15 02:07:11;;;;;;;;;;;19.70;57.70;;;;;;4992125;28;990;-73
2021/12/15 02:12:05;;;;;;;;;;;19.70;57.80;;;;;;5002675;28;1242;-73
2021/12/15 02:14:31;;;;;;;;;;;19.60;57.70;;;;;;5006712;28;1100;-72
2021/12/15 02:16:57;;;;;;;;;;;19.60;57.70;;;;;;5008660;28;1978;-73
2021/12/15 02:19:22;;;;;;;;;;;19.70;57.80;;;;;;4987305;28;1097;-72
2021/12/15 02:21:48;;;;;;;;;;;19.60;57.70;;;;;;4998572;28;1352;-73
2021/12/15 02:24:13;;;;;;;;;;;19.60;57.80;;;;;;5004705;28;1147;-73
2021/12/15 02:26:45;;;;;;;;;;;19.60;57.80;;;;;;5001792;28;1139;-73
2021/12/15 02:29:15;;;;;;;;;;;19.60;57.80;;;;;;5005867;28;1116;-72
2021/12/15 02:39:31;;;;;;;;;;;19.60;57.80;;;;;;5008835;28;1112;-73
2021/12/15 02:41:56;;;;;;;;;;;19.60;57.80;;;;;;4995229;28;1384;-72
2021/12/15 02:44:22;;;;;;;;;;;19.60;57.70;;;;;;4990857;28;1310;-72
2021/12/15 02:46:48;;;;;;;;;;;19.70;57.70;;;;;;5014377;28;1268;-72
2021/12/15 02:49:14;;;;;;;;;;;19.70;57.70;;;;;;5000598;28;1179;-73
2021/12/15 02:51:40;;;;;;;;;;;19.70;57.70;;;;;;5002931;28;1333;-72
2021/12/15 02:54:07;;;;;;;;;;;19.70;57.60;;;;;;5013436;28;1340;-72
2021/12/15 02:56:33;;;;;;;;;;;19.80;57.60;;;;;;4995077;28;1911;-72
2021/12/15 02:59:08;;;;;;;;;;;19.80;57.50;;;;;;4992442;28;1143;-71
2021/12/15 03:01:53;;;;;;;;;;;19.80;57.40;;;;;;4997735;28;1274;-71
2021/12/15 03:07:07;;;;;;;;;;;19.80;57.30;;;;;;5001977;28;1115;-72
2021/12/15 03:17:26;;;;;;;;;;;19.90;57.10;;;;;;5007381;28;1907;-73
2021/12/15 03:19:52;;;;;;;;;;;19.90;57.00;;;;;;4999698;28;1096;-72
2021/12/15 03:22:17;;;;;;;;;;;19.90;57.00;;;;;;5005901;28;1391;-71
2021/12/15 03:24:43;;;;;;;;;;;19.90;57.00;;;;;;5005890;28;1303;-71
2021/12/15 03:27:15;;;;;;;;;;;20.00;57.00;;;;;;5003569;28;1127;-71
2021/12/15 03:37:51;;;;;;;;;;;20.00;56.80;;;;;;4990654;28;1985;-73
2021/12/15 03:40:19;;;;;;;;;;;20.00;56.80;;;;;;5004045;28;1332;-73
2021/12/15 03:42:54;;;;;;;;;;;20.00;56.80;;;;;;5003163;28;1290;-71
2021/12/15 03:45:30;;;;;;;;;;;20.10;56.80;;;;;;5003273;28;1076;-71
2021/12/15 03:47:57;;;;;;;;;;;20.10;56.80;;;;;;4995043;28;1072;-71
2021/12/15 03:50:22;;;;;;;;;;;20.00;56.70;;;;;;4994572;28;1262;-72
2021/12/15 03:52:48;;;;;;;;;;;20.00;56.70;;;;;;4993092;28;1285;-73
2021/12/15 03:55:13;;;;;;;;;;;20.00;56.70;;;;;;5004349;28;1260;-72
2021/12/15 03:57:39;;;;;;;;;;;20.00;56.70;;;;;;5002896;28;1956;-71
2021/12/15 04:00:05;;;;;;;;;;;20.00;56.70;;;;;;5006704;28;1900;-72
2021/12/15 04:02:30;;;;;;;;;;;20.10;56.70;;;;;;5006178;28;1315;-71
2021/12/15 04:04:56;;;;;;;;;;;20.10;56.70;;;;;;5004483;28;1226;-71
2021/12/15 04:07:22;;;;;;;;;;;20.10;56.70;;;;;;5007424;28;1134;-69
2021/12/15 04:09:48;;;;;;;;;;;20.10;56.70;;;;;;5002924;28;1294;-70
2021/12/15 04:12:13;;;;;;;;;;;20.10;56.70;;;;;;5003689;28;1318;-72
2021/12/15 04:14:45;;;;;;;;;;;20.10;56.60;;;;;;5005131;28;1245;-72
2021/12/15 04:17:26;;;;;;;;;;;20.10;56.60;;;;;;5003778;28;2040;-71
2021/12/15 04:19:55;;;;;;;;;;;20.10;56.60;;;;;;5005494;28;1169;-71
2021/12/15 04:22:21;;;;;;;;;;;20.10;56.60;;;;;;4992694;28;1411;-72
2021/12/15 04:24:47;;;;;;;;;;;20.10;56.60;;;;;;4989302;28;1081;-70
2021/12/15 04:27:12;;;;;;;;;;;20.10;56.60;;;;;;4979434;28;1073;-70
2021/12/15 04:29:39;;;;;;;;;;;20.10;56.60;;;;;;5007245;28;1273;-71
2021/12/15 04:32:17;;;;;;;;;;;20.10;56.50;;;;;;5008662;28;1379;-71
2021/12/15 04:34:42;;;;;;;;;;;20.10;56.50;;;;;;5001507;28;1230;-71
2021/12/15 04:37:08;;;;;;;;;;;20.10;57.10;;;;;;5006748;28;1989;-70
2021/12/15 04:39:33;;;;;;;;;;;20.10;56.50;;;;;;5004342;28;1729;-72
2021/12/15 04:41:59;;;;;;;;;;;20.10;56.50;;;;;;5002674;28;1367;-71
2021/12/15 04:44:27;;;;;;;;;;;20.10;56.50;;;;;;5004493;28;1284;-71
2021/12/15 04:47:00;;;;;;;;;;;20.10;56.50;;;;;;4988806;28;1320;-71
2021/12/15 04:49:27;;;;;;;;;;;20.10;56.50;;;;;;5002091;28;1335;-71
2021/12/15 04:51:52;;;;;;;;;;;20.10;56.50;;;;;;4986402;28;1362;-70
2021/12/15 04:54:17;;;;;;;;;;;20.10;56.50;;;;;;4992365;28;1413;-72
2021/12/15 04:56:43;;;;;;;;;;;20.10;56.50;;;;;;4992829;28;1906;-72
2021/12/15 04:59:09;;;;;;;;;;;20.10;56.50;;;;;;5006568;28;1060;-71
2021/12/15 05:01:34;;;;;;;;;;;20.10;56.50;;;;;;4985224;28;1370;-70
2021/12/15 05:03:59;;;;;;;;;;;20.10;56.50;;;;;;5004324;28;1168;-69
2021/12/15 05:06:25;;;;;;;;;;;20.10;56.50;;;;;;5006365;28;1287;-71
2021/12/15 05:08:50;;;;;;;;;;;20.10;56.50;;;;;;5003847;28;1324;-71
2021/12/15 05:11:16;;;;;;;;;;;20.10;56.50;;;;;;5012958;28;1336;-71
2021/12/15 05:13:41;;;;;;;;;;;20.10;56.50;;;;;;4995046;28;1299;-71
2021/12/15 05:16:07;;;;;;;;;;;20.10;56.50;;;;;;5012579;28;1139;-72
2021/12/15 05:18:33;;;;;;;;;;;20.10;56.40;;;;;;4996687;28;1969;-72
2021/12/15 05:20:59;;;;;;;;;;;20.10;56.40;;;;;;5003037;28;1124;-73
2021/12/15 05:23:29;;;;;;;;;;;20.10;56.40;;;;;;5015138;28;1414;-72
2021/12/15 05:25:55;;;;;;;;;;;20.10;56.40;;;;;;5006632;28;1124;-70
2021/12/15 05:28:21;;;;;;;;;;;20.10;56.40;;;;;;5008159;28;1301;-70
2021/12/15 05:30:46;;;;;;;;;;;20.10;56.40;;;;;;4999930;28;1314;-71
2021/12/15 05:33:12;;;;;;;;;;;20.20;56.50;;;;;;5007014;28;1397;-74
2021/12/15 05:35:37;;;;;;;;;;;20.20;56.50;;;;;;4997630;28;1263;-70
2021/12/15 05:38:03;;;;;;;;;;;20.20;56.50;;;;;;5009600;28;1890;-71
2021/12/15 05:40:28;;;;;;;;;;;20.20;56.50;;;;;;4996595;28;1284;-72
2021/12/15 05:42:57;;;;;;;;;;;20.20;56.50;;;;;;4996402;28;1275;-72
2021/12/15 05:45:26;;;;;;;;;;;20.10;56.40;;;;;;4985251;28;1320;-72
2021/12/15 05:47:51;;;;;;;;;;;20.20;56.50;;;;;;5012472;28;1270;-72
2021/12/15 05:50:17;;;;;;;;;;;20.20;56.50;;;;;;5015928;28;1291;-72
2021/12/15 05:52:42;;;;;;;;;;;20.20;56.50;;;;;;5016105;28;1806;-72
2021/12/15 05:55:08;;;;;;;;;;;20.20;56.40;;;;;;4998326;28;1447;-72
2021/12/15 05:57:34;;;;;;;;;;;20.20;56.50;;;;;;4998726;28;1894;-72
2021/12/15 05:59:59;;;;;;;;;;;20.20;56.50;;;;;;4996395;28;1370;-72
2021/12/15 06:02:25;;;;;;;;;;;20.20;56.40;;;;;;5012692;28;1286;-72
2021/12/15 06:04:50;;;;;;;;;;;20.20;56.50;;;;;;4998579;28;1294;-72
2021/12/15 06:07:16;;;;;;;;;;;20.20;56.50;;;;;;4997954;28;1320;-72
2021/12/15 06:09:41;;;;;;;;;;;20.20;56.50;;;;;;4998273;28;1164;-73
2021/12/15 06:12:08;;;;;;;;;;;20.20;56.50;;;;;;4998738;28;1222;-72
2021/12/15 06:14:34;;;;;;;;;;;20.20;56.50;;;;;;4996013;28;1280;-72
2021/12/15 06:17:09;;;;;;;;;;;20.20;56.40;;;;;;4995403;28;1899;-72
2021/12/15 06:19:35;;;;;;;;;;;20.20;56.40;;;;;;4996065;28;1317;-72
2021/12/15 06:22:00;;;;;;;;;;;20.20;56.40;;;;;;4995622;28;1356;-72
2021/12/15 06:24:26;;;;;;;;;;;20.20;56.40;;;;;;4996047;28;1276;-71
2021/12/15 06:26:52;;;;;;;;;;;20.20;56.50;;;;;;4992710;28;1137;-71
2021/12/15 06:29:17;;;;;;;;;;;20.20;56.40;;;;;;5005720;28;1313;-71
2021/12/15 06:31:43;;;;;;;;;;;20.20;56.40;;;;;;5009957;28;1275;-70
2021/12/15 06:34:08;;;;;;;;;;;20.20;56.40;;;;;;4989564;28;1160;-71
2021/12/15 06:36:34;;;;;;;;;;;20.20;56.40;;;;;;5010319;28;1957;-71
2021/12/15 06:38:59;;;;;;;;;;;20.20;56.40;;;;;;4995465;28;1264;-70
2021/12/15 06:41:25;;;;;;;;;;;20.20;56.40;;;;;;5000113;28;1320;-70
2021/12/15 06:43:54;;;;;;;;;;;20.20;56.40;;;;;;5015064;28;1268;-71
2021/12/15 06:58:10;;;;;;;;;;;20.20;56.40;;;;;;4997897;28;1950;-72
2021/12/15 07:00:18;;;;;;;;;;;20.20;56.40;;;;;;5014603;28;1069;-72
2021/12/15 07:02:44;;;;;;;;;;;20.20;56.40;;;;;;5013219;28;1387;-72
2021/12/15 07:05:09;;;;;;;;;;;20.20;56.40;;;;;;5014451;28;1285;-72
2021/12/15 07:07:35;;;;;;;;;;;20.20;56.40;;;;;;4995624;28;1280;-72
2021/12/15 07:10:01;;;;;;;;;;;20.20;56.40;;;;;;4994118;28;1167;-72
2021/12/15 07:12:26;;;;;;;;;;;20.20;56.40;;;;;;5008965;28;1224;-72
2021/12/15 07:14:52;;;;;;;;;;;20.20;56.40;;;;;;5006993;28;1084;-72
2021/12/15 07:17:22;;;;;;;;;;;20.20;56.40;;;;;;4978048;28;1977;-72
2021/12/15 07:24:57;;;;;;;;;;;20.20;56.40;;;;;;5014604;28;1298;-72
2021/12/15 07:27:22;;;;;;;;;;;20.20;56.40;;;;;;5013857;28;1268;-72
2021/12/15 07:29:47;;;;;;;;;;;20.20;56.40;;;;;;5013931;28;1288;-70
2021/12/15 07:32:13;;;;;;;;;;;20.20;56.40;;;;;;5005586;28;1256;-71
2021/12/15 07:34:38;;;;;;;;;;;20.20;56.40;;;;;;5007863;28;1200;-71
2021/12/15 07:37:04;;;;;;;;;;;20.20;56.40;;;;;;5001710;28;1890;-70
2021/12/15 07:39:29;;;;;;;;;;;20.20;56.40;;;;;;5009483;28;1352;-72
2021/12/15 07:42:06;;;;;;;;;;;20.20;56.30;;;;;;4994554;28;1428;-72
2021/12/15 07:44:31;;;;;;;;;;;20.30;56.20;;;;;;4989918;28;1069;-72
2021/12/15 07:46:57;;;;;;;;;;;20.40;56.10;;;;;;5013761;28;1076;-72
2021/12/15 07:49:22;;;;;;;;;;;20.50;56.00;;;;;;4994330;28;1371;-72
2021/12/15 07:51:48;;;;;;;;;;;20.60;55.90;;;;;;4994253;28;1303;-72
2021/12/15 07:54:14;;;;;;;;;;;20.60;55.70;;;;;;4994162;28;1272;-72
2021/12/15 07:56:41;;;;;;;;;;;20.70;55.60;;;;;;4993802;28;1914;-72
2021/12/15 07:59:07;;;;;;;;;;;20.80;55.40;;;;;;4994026;28;1281;-72
2021/12/15 08:01:32;;;;;;;;;;;20.90;55.20;;;;;;5003371;28;1567;-71
2021/12/15 08:03:58;;;;;;;;;;;21.00;55.10;;;;;;5008145;28;1100;-73
2021/12/15 08:06:23;;;;;;;;;;;21.10;54.90;;;;;;4993651;28;962;-73
2021/12/15 08:08:49;;;;;;;;;;;21.10;55.30;;;;;;4991918;28;2036;-73
2021/12/15 08:11:15;;;;;;;;;;;21.10;54.70;;;;;;5013225;28;1300;-73
2021/12/15 08:13:41;;;;;;;;;;;21.20;54.50;;;;;;4994164;28;1389;-72
2021/12/15 08:16:06;;;;;;;;;;;21.20;54.40;;;;;;4993633;28;1076;-72
2021/12/15 08:18:32;;;;;;;;;;;21.30;54.40;;;;;;4993636;28;1961;-72
2021/12/15 08:20:57;;;;;;;;;;;21.30;54.30;;;;;;4987720;28;1308;-72
2021/12/15 08:23:23;;;;;;;;;;;21.30;54.90;;;;;;5010180;28;1313;-71
2021/12/15 08:25:49;;;;;;;;;;;21.30;54.20;;;;;;5002371;28;1248;-71
2021/12/15 08:28:14;;;;;;;;;;;21.30;54.10;;;;;;5003568;28;1231;-71
2021/12/15 08:30:40;;;;;;;;;;;21.40;54.80;;;;;;5005521;28;1423;-72
2021/12/15 08:33:07;;;;;;;;;;;21.30;54.10;;;;;;5013059;28;1402;-71
2021/12/15 08:35:34;;;;;;;;;;;21.40;54.10;;;;;;4995544;28;1366;-72
2021/12/15 08:37:59;;;;;;;;;;;21.40;54.10;;;;;;4993307;28;1898;-72
2021/12/15 08:40:25;;;;;;;;;;;21.40;54.10;;;;;;4993377;28;1339;-72
2021/12/15 08:42:51;;;;;;;;;;;21.40;54.10;;;;;;4993084;28;1359;-72
2021/12/15 08:45:17;;;;;;;;;;;21.40;54.20;;;;;;4996399;28;1104;-71
2021/12/15 08:47:42;;;;;;;;;;;21.30;54.10;;;;;;4994262;28;1894;-69
2021/12/15 08:50:09;;;;;;;;;;;21.30;54.10;;;;;;5002341;28;1925;-70
2021/12/15 08:52:34;;;;;;;;;;;21.30;54.80;;;;;;5004492;28;1757;-71
2021/12/15 08:55:00;;;;;;;;;;;21.30;54.20;;;;;;5002122;28;1216;-71
2021/12/15 08:57:25;;;;;;;;;;;21.30;54.30;;;;;;4986229;28;1953;-71
2021/12/15 08:59:51;;;;;;;;;;;21.30;54.30;;;;;;5003987;28;1261;-72
2021/12/15 09:02:17;;;;;;;;;;;21.30;54.30;;;;;;5007848;28;1390;-71
2021/12/15 09:04:42;;;;;;;;;;;21.30;54.30;;;;;;4991878;28;1183;-72
2021/12/15 09:07:08;;;;;;;;;;;21.30;54.40;;;;;;5006171;28;1260;-73
2021/12/15 09:09:33;;;;;;;;;;;21.30;54.40;;;;;;4992754;28;1301;-72
2021/12/15 09:11:59;;;;;;;;;;;21.20;54.40;;;;;;5006483;28;2319;-70
2021/12/15 09:14:24;;;;;;;;;;;21.20;54.40;;;;;;5003667;28;1300;-71
2021/12/15 09:16:50;;;;;;;;;;;21.20;54.50;;;;;;5007032;28;1961;-72
2021/12/15 09:19:16;;;;;;;;;;;21.20;54.50;;;;;;5003343;28;1327;-72
2021/12/15 09:21:42;;;;;;;;;;;21.20;54.50;;;;;;5004818;28;1276;-71
2021/12/15 09:24:08;;;;;;;;;;;21.20;54.60;;;;;;4993169;28;1253;-72
2021/12/15 09:26:34;;;;;;;;;;;21.20;54.60;;;;;;5006821;28;1260;-72
2021/12/15 09:28:59;;;;;;;;;;;21.20;54.60;;;;;;5009769;28;1221;-72
2021/12/15 09:31:25;;;;;;;;;;;21.10;54.70;;;;;;5007275;28;1293;-72
2021/12/15 09:33:51;;;;;;;;;;;21.10;54.70;;;;;;4992677;28;1241;-71
2021/12/15 09:36:17;;;;;;;;;;;21.20;54.70;;;;;;5007253;28;1308;-72
2021/12/15 09:38:43;;;;;;;;;;;21.20;54.70;;;;;;5009203;28;1957;-72
2021/12/15 09:41:09;;;;;;;;;;;21.10;54.70;;;;;;5007433;28;1280;-71
2021/12/15 09:43:36;;;;;;;;;;;21.10;54.70;;;;;;4992075;28;1271;-72
2021/12/15 10:04:50;;;;;;;;;;;21.00;55.00;;;;;;5009370;28;1842;-72
2021/12/15 10:17:50;;;;;;;;;;;21.00;55.20;;;;;;5007695;28;1964;-70
2021/12/15 10:20:18;;;;;;;;;;;20.90;55.10;;;;;;5005589;28;1197;-71
2021/12/15 10:22:46;;;;;;;;;;;20.90;55.10;;;;;;5006688;28;1322;-71
2021/12/15 10:25:16;;;;;;;;;;;20.90;55.20;;;;;;5007030;28;1177;-71
2021/12/15 10:27:48;;;;;;;;;;;20.90;55.80;;;;;;5007906;28;1205;-71
2021/12/15 10:30:27;;;;;;;;;;;20.90;55.20;;;;;;5006576;28;1399;-70
2021/12/15 10:33:13;;;;;;;;;;;20.90;55.20;;;;;;5006182;28;1406;-70
2021/12/15 10:35:40;;;;;;;;;;;20.90;55.30;;;;;;5005203;28;1229;-72
2021/12/15 10:38:45;;;;;;;;;;;20.90;55.30;;;;;;5005678;28;1962;-74
2021/12/15 10:41:15;;;;;;;;;;;20.90;55.30;;;;;;4919346;29;1363;-69
2021/12/15 10:43:40;;;;;;;;;;;20.90;55.30;;;;;;4920562;29;1247;-71
2021/12/15 10:46:17;;;;;;;;;;;20.90;55.30;;;;;;4963673;28;1210;-70
2021/12/15 10:49:02;;;;;;;;;;;21.00;55.30;;;;;;5003819;28;1237;-71
2021/12/15 10:51:33;;;;;;;;;;;21.00;55.20;;;;;;5008474;28;1351;-72
2021/12/15 10:54:00;;;;;;;;;;;21.00;55.20;;;;;;5003045;28;1423;-69
2021/12/15 10:56:26;;;;;;;;;;;21.00;55.10;;;;;;5005451;28;1965;-71
2021/12/15 10:58:53;;;;;;;;;;;21.10;55.10;;;;;;5006196;28;1233;-70
2021/12/15 11:01:37;;;;;;;;;;;21.10;55.10;;;;;;4993154;28;1285;-71
2021/12/15 11:04:04;;;;;;;;;;;21.10;55.00;;;;;;5005450;28;1197;-70
2021/12/15 11:06:33;;;;;;;;;;;21.10;55.00;;;;;;4990266;28;1488;-70
2021/12/15 11:09:15;;;;;;;;;;;21.10;55.00;;;;;;5007191;28;1268;-72
2021/12/15 11:12:00;;;;;;;;;;;21.10;54.90;;;;;;5005301;28;1213;-72
2021/12/15 11:14:27;;;;;;;;;;;21.10;54.90;;;;;;5005329;28;1185;-73
2021/12/15 11:17:03;;;;;;;;;;;21.10;54.90;;;;;;5004965;28;1965;-72
2021/12/15 11:19:40;;;;;;;;;;;21.10;54.90;;;;;;5006707;28;1157;-72
2021/12/15 11:22:24;;;;;;;;;;;21.10;54.90;;;;;;5006534;28;1279;-72
2021/12/15 11:24:50;;;;;;;;;;;21.10;54.90;;;;;;5006062;28;1391;-72
2021/12/15 11:27:16;;;;;;;;;;;21.10;54.90;;;;;;5005408;28;1295;-73
2021/12/15 11:29:42;;;;;;;;;;;21.10;54.90;;;;;;5007774;28;1276;-71
2021/12/15 11:32:07;;;;;;;;;;;21.10;54.90;;;;;;4990925;28;1305;-71
2021/12/15 11:34:33;;;;;;;;;;;21.10;55.00;;;;;;5004644;28;1275;-72
2021/12/15 11:36:58;;;;;;;;;;;21.10;55.00;;;;;;5005114;28;1903;-73
2021/12/15 11:39:24;;;;;;;;;;;21.10;55.00;;;;;;5005448;28;1137;-71
2021/12/15 11:41:51;;;;;;;;;;;21.10;55.60;;;;;;5005927;28;1301;-71
2021/12/15 11:44:17;;;;;;;;;;;21.00;55.00;;;;;;5005318;28;1121;-71
2021/12/15 11:46:44;;;;;;;;;;;21.00;55.10;;;;;;5005345;28;1288;-72
2021/12/15 11:49:19;;;;;;;;;;;21.10;55.10;;;;;;5005164;28;1212;-72
2021/12/15 11:51:49;;;;;;;;;;;21.00;55.10;;;;;;5006946;28;1279;-72
2021/12/15 11:54:20;;;;;;;;;;;21.00;55.20;;;;;;5003323;28;1407;-72
2021/12/15 11:56:49;;;;;;;;;;;21.00;55.20;;;;;;4989328;28;1894;-73
2021/12/15 11:59:17;;;;;;;;;;;21.00;55.30;;;;;;5005288;28;1177;-73
2021/12/15 12:01:53;;;;;;;;;;;20.90;55.30;;;;;;5003564;28;1405;-74
2021/12/15 12:04:24;;;;;;;;;;;20.90;55.40;;;;;;5002877;28;1249;-71
2021/12/15 12:06:52;;;;;;;;;;;20.90;55.40;;;;;;5004420;28;1279;-72
2021/12/15 12:09:19;;;;;;;;;;;20.90;55.50;;;;;;5004423;28;1160;-74
2021/12/15 12:11:50;;;;;;;;;;;20.90;56.20;;;;;;5003532;28;1216;-72
2021/12/15 12:14:26;;;;;;;;;;;20.90;56.10;;;;;;5001457;28;1339;-74
2021/12/15 12:16:52;;;;;;;;;;;20.80;55.90;;;;;;4993303;28;1978;-72
2021/12/15 12:19:17;;;;;;;;;;;20.80;55.90;;;;;;4989571;28;1292;-72
2021/12/15 12:21:43;;;;;;;;;;;20.80;55.90;;;;;;5003896;28;1323;-72
2021/12/15 12:24:11;;;;;;;;;;;20.80;55.90;;;;;;4990706;28;1225;-72
2021/12/15 12:26:37;;;;;;;;;;;20.80;55.90;;;;;;5003853;28;1224;-73
2021/12/15 12:29:03;;;;;;;;;;;20.70;55.90;;;;;;5007840;28;1311;-72
2021/12/15 12:31:28;;;;;;;;;;;20.70;56.00;;;;;;5002281;28;1363;-71
2021/12/15 12:33:54;;;;;;;;;;;20.70;56.00;;;;;;5006314;28;1225;-71
2021/12/15 12:36:22;;;;;;;;;;;20.70;56.10;;;;;;5002521;28;1200;-70
2021/12/15 12:38:48;;;;;;;;;;;20.70;56.10;;;;;;5001618;28;1903;-71
2021/12/15 12:41:16;;;;;;;;;;;20.60;56.10;;;;;;5004607;28;1287;-73
2021/12/15 12:43:42;;;;;;;;;;;20.70;56.20;;;;;;5004334;28;1414;-70
2021/12/15 12:46:20;;;;;;;;;;;20.70;56.20;;;;;;5002766;28;1252;-72
2021/12/15 12:49:28;;;;;;;;;;;20.60;56.20;;;;;;5003714;28;1154;-73
2021/12/15 13:00:19;;;;;;;;;;;20.50;56.30;;;;;;5002054;28;1092;-73
2021/12/15 13:02:51;;;;;;;;;;;20.50;56.40;;;;;;5006196;28;1459;-74
2021/12/15 13:05:46;;;;;;;;;;;20.50;56.40;;;;;;5004474;28;1260;-73
2021/12/15 13:08:14;;;;;;;;;;;20.50;56.50;;;;;;4991313;28;1221;-73
2021/12/15 13:10:57;;;;;;;;;;;20.50;56.60;;;;;;5003692;28;1230;-74
2021/12/15 13:13:24;;;;;;;;;;;20.40;56.60;;;;;;5004626;28;1291;-72
2021/12/15 13:15:57;;;;;;;;;;;20.40;56.60;;;;;;5004889;28;1300;-72
2021/12/15 13:18:22;;;;;;;;;;;20.40;56.60;;;;;;5002805;28;1915;-71
2021/12/15 13:20:58;;;;;;;;;;;20.40;56.70;;;;;;5001306;28;1240;-71
2021/12/15 13:23:33;;;;;;;;;;;20.40;56.70;;;;;;4992952;28;1324;-73
2021/12/15 13:28:48;;;;;;;;;;;20.40;56.60;;;;;;4993205;28;1355;-70
2021/12/15 13:31:15;;;;;;;;;;;20.40;56.70;;;;;;4986530;28;1061;-71
2021/12/15 13:33:43;;;;;;;;;;;20.40;56.60;;;;;;5000265;28;1754;-69
2021/12/15 13:36:08;;;;;;;;;;;20.40;56.60;;;;;;4991812;28;1292;-68
2021/12/15 13:38:38;;;;;;;;;;;20.40;56.60;;;;;;4985531;28;1969;-67
2021/12/15 13:41:13;;;;;;;;;;;20.40;56.60;;;;;;5006395;28;1177;-70
2021/12/15 13:43:40;;;;;;;;;;;20.40;56.60;;;;;;5004717;28;1251;-70
2021/12/15 13:46:07;;;;;;;;;;;20.40;56.50;;;;;;4994139;28;1407;-69
2021/12/15 13:48:51;;;;;;;;;;;20.40;56.50;;;;;;5015365;28;1315;-74
2021/12/15 13:51:17;;;;;;;;;;;20.40;56.50;;;;;;5003264;28;1202;-71
2021/12/15 13:53:42;;;;;;;;;;;20.50;56.50;;;;;;4994630;28;1572;-71
2021/12/15 13:56:08;;;;;;;;;;;20.40;56.50;;;;;;5009494;28;1116;-72
2021/12/15 13:58:33;;;;;;;;;;;20.40;56.50;;;;;;5008305;28;1898;-74
2021/12/15 14:00:59;;;;;;;;;;;20.50;56.50;;;;;;5015767;28;1328;-72
2021/12/15 14:03:33;;;;;;;;;;;20.50;56.50;;;;;;5006601;28;1247;-72
2021/12/15 14:05:58;;;;;;;;;;;20.50;56.50;;;;;;5014469;28;1466;-73
2021/12/15 14:08:28;;;;;;;;;;;20.50;56.50;;;;;;5011283;28;1408;-73
2021/12/15 14:10:58;;;;;;;;;;;20.50;56.50;;;;;;5015717;28;1372;-73
2021/12/15 14:13:35;;;;;;;;;;;20.40;56.50;;;;;;5015862;28;1346;-74
2021/12/15 14:16:00;;;;;;;;;;;20.40;56.40;;;;;;4994768;28;1110;-74
2021/12/15 14:18:27;;;;;;;;;;;20.40;56.40;;;;;;5010035;28;1910;-73
2021/12/15 14:20:54;;;;;;;;;;;20.50;56.50;;;;;;5009812;28;1256;-74
2021/12/15 14:23:22;;;;;;;;;;;20.50;56.50;;;;;;5005593;28;1276;-74
2021/12/15 14:25:48;;;;;;;;;;;20.50;56.50;;;;;;5008588;28;1244;-73
2021/12/15 14:28:18;;;;;;;;;;;20.50;56.50;;;;;;5007219;28;1243;-74
2021/12/15 14:30:44;;;;;;;;;;;20.50;56.50;;;;;;5008605;28;1281;-74
2021/12/15 14:33:20;;;;;;;;;;;20.50;56.50;;;;;;5006181;28;1303;-73
2021/12/15 14:35:45;;;;;;;;;;;20.50;56.50;;;;;;4986356;28;1387;-73
2021/12/15 14:38:11;;;;;;;;;;;20.40;56.50;;;;;;5004947;28;1890;-73
2021/12/15 14:40:36;;;;;;;;;;;20.50;56.50;;;;;;5002698;28;1244;-72
2021/12/15 14:43:02;;;;;;;;;;;20.40;57.10;;;;;;5005798;28;1268;-70
2021/12/15 14:45:27;;;;;;;;;;;20.40;56.50;;;;;;5008269;28;1204;-71
2021/12/15 14:47:53;;;;;;;;;;;20.40;56.50;;;;;;5003979;28;1221;-71
2021/12/15 14:50:19;;;;;;;;;;;20.40;56.50;;;;;;5006274;28;1382;-71
2021/12/15 14:52:45;;;;;;;;;;;20.40;56.50;;;;;;5006145;28;1350;-71
2021/12/15 14:55:12;;;;;;;;;;;20.40;56.50;;;;;;5006451;28;1232;-71
2021/12/15 14:57:38;;;;;;;;;;;20.40;56.50;;;;;;5006078;28;1894;-71
2021/12/15 15:00:06;;;;;;;;;;;20.40;56.50;;;;;;5005991;28;1192;-71
2021/12/15 15:02:32;;;;;;;;;;;20.40;56.50;;;;;;5006722;28;1359;-70
2021/12/15 15:04:59;;;;;;;;;;;20.40;56.50;;;;;;4985685;28;1248;-72
2021/12/15 15:07:27;;;;;;;;;;;20.40;56.50;;;;;;5006571;28;1269;-72
2021/12/15 15:09:53;;;;;;;;;;;20.40;56.50;;;;;;5004076;28;1260;-72
2021/12/15 15:12:25;;;;;;;;;;;20.40;56.50;;;;;;5005235;28;1251;-70
2021/12/15 15:14:56;;;;;;;;;;;20.40;56.50;;;;;;5004713;28;1224;-70
2021/12/15 15:17:25;;;;;;;;;;;20.40;56.50;;;;;;4996453;28;1910;-71
2021/12/15 15:19:52;;;;;;;;;;;20.50;56.60;;;;;;5014535;28;1296;-71
2021/12/15 15:22:18;;;;;;;;;;;20.50;56.50;;;;;;4996805;28;1265;-71
2021/12/15 15:24:47;;;;;;;;;;;20.50;57.10;;;;;;4996882;28;1307;-70
2021/12/15 15:27:12;;;;;;;;;;;20.50;56.50;;;;;;4996728;28;1145;-72
2021/12/15 15:29:39;;;;;;;;;;;20.50;56.40;;;;;;5008466;28;1224;-71
2021/12/15 15:32:09;;;;;;;;;;;20.50;56.40;;;;;;5005437;28;1384;-70
2021/12/15 15:34:34;;;;;;;;;;;20.50;56.50;;;;;;5004900;28;1304;-70
2021/12/15 15:36:59;;;;;;;;;;;20.50;56.50;;;;;;5006588;28;1894;-71
2021/12/15 15:39:25;;;;;;;;;;;20.40;56.50;;;;;;4995895;28;1272;-72
2021/12/15 15:41:50;;;;;;;;;;;20.50;56.60;;;;;;5007118;28;1407;-72
2021/12/15 15:44:17;;;;;;;;;;;20.50;56.60;;;;;;5006194;28;1193;-71
2021/12/15 15:46:43;;;;;;;;;;;20.40;56.50;;;;;;5013684;28;1431;-71
2021/12/15 15:49:09;;;;;;;;;;;20.40;56.60;;;;;;4991717;28;2149;-70
2021/12/15 15:51:36;;;;;;;;;;;20.40;56.60;;;;;;5007607;28;1310;-71
2021/12/15 15:54:04;;;;;;;;;;;20.40;56.60;;;;;;5007334;28;1927;-71
2021/12/15 15:56:30;;;;;;;;;;;20.40;56.60;;;;;;4993370;28;1821;-69
2021/12/15 15:58:57;;;;;;;;;;;20.40;56.60;;;;;;5011301;28;1907;-69
2021/12/15 16:01:23;;;;;;;;;;;20.40;56.60;;;;;;5012474;28;2202;-68
2021/12/15 16:03:52;;;;;;;;;;;20.40;56.60;;;;;;4995201;28;2197;-69
2021/12/15 16:06:18;;;;;;;;;;;20.40;56.60;;;;;;4996936;28;1218;-69
2021/12/15 16:08:43;;;;;;;;;;;20.40;56.60;;;;;;4999684;28;1254;-69
2021/12/15 16:11:20;;;;;;;;;;;20.40;56.60;;;;;;4992823;28;1155;-70